sensor_id;sensor_type;location;lat;lon;timestamp;temperature;humidity
2929;DHT22;1474;51.460;7.150;2023-03-29T00:01:52;5.70;99.90
2929;DHT22;1474;51.460;7.150;2023-03-29T00:04:18;5.70;99.90
2929;DHT22;1474;51.460;7.150;2023-03-29T00:06:46;5.70;99.90
2929;DHT22;1474;51.460;7.150;2023-03-29T00:09:13;5.70;99.90
2929;DHT22;1474;51.460;7.150;2023-03-29T00:11:40;5.80;99.90
2929;DHT22;1474;51.460;7.150;2023-03-29T00:14:06;5.80;99.90
2929;DHT22;1474;51.460;7.150;2023-03-29T00:16:31;5.80;99.90
2929;DHT22;1474;51.460;7.150;2023-03-29T00:18:57;5.90;99.90
2929;DHT22;1474;51.460;7.150;2023-03-29T00:21:23;5.80;99.90
2929;DHT22;1474;51.460;7.150;2023-03-29T00:23:48;5.90;99.90
2929;DHT22;1474;51.460;7.150;2023-03-29T00:26:14;5.80;99.90
2929;DHT22;1474;51.460;7.150;2023-03-29T00:28:40;5.90;99.90
2929;DHT22;1474;51.460;7.150;2023-03-29T00:31:10;5.90;99.90
2929;DHT22;1474;51.460;7.150;2023-03-29T00:33:36;5.90;99.90
2929;DHT22;1474;51.460;7.150;2023-03-29T00:36:02;5.90;99.90
2929;DHT22;1474;51.460;7.150;2023-03-29T00:38:29;5.90;99.90
2929;DHT22;1474;51.460;7.150;2023-03-29T00:40:55;5.90;99.90
2929;DHT22;1474;51.460;7.150;2023-03-29T00:43:21;6.00;99.90
2929;DHT22;1474;51.460;7.150;2023-03-29T00:45:47;5.90;99.90
2929;DHT22;1474;51.460;7.150;2023-03-29T00:48:16;6.00;99.90
2929;DHT22;1474;51.460;7.150;2023-03-29T00:51:01;6.00;99.90
2929;DHT22;1474;51.460;7.150;2023-03-29T00:53:29;6.00;99.90
2929;DHT22;1474;51.460;7.150;2023-03-29T00:59:05;6.00;99.90
2929;DHT22;1474;51.460;7.150;2023-03-29T01:01:49;6.00;99.90
2929;DHT22;1474;51.460;7.150;2023-03-29T01:06:53;5.90;99.90
2929;DHT22;1474;51.460;7.150;2023-03-29T01:09:21;5.90;99.90
2929;DHT22;1474;51.460;7.150;2023-03-29T01:12:01;6.00;99.90
2929;DHT22;1474;51.460;7.150;2023-03-29T01:14:33;6.00;99.90
2929;DHT22;1474;51.460;7.150;2023-03-29T01:17:00;6.00;99.90
2929;DHT22;1474;51.460;7.150;2023-03-29T01:19:30;6.00;99.90
2929;DHT22;1474;51.460;7.150;2023-03-29T01:22:35;6.00;99.90
2929;DHT22;1474;51.460;7.150;2023-03-29T01:30:41;6.10;99.90
2929;DHT22;1474;51.460;7.150;2023-03-29T01:33:26;6.10;99.90
2929;DHT22;1474;51.460;7.150;2023-03-29T01:39:03;6.10;99.90
2929;DHT22;1474;51.460;7.150;2023-03-29T01:41:42;6.10;99.90
2929;DHT22;1474;51.460;7.150;2023-03-29T01:45:06;6.10;99.90
2929;DHT22;1474;51.460;7.150;2023-03-29T01:47:21;6.10;99.90
2929;DHT22;1474;51.460;7.150;2023-03-29T01:49:59;6.10;99.90
2929;DHT22;1474;51.460;7.150;2023-03-29T01:52:40;6.10;99.90
2929;DHT22;1474;51.460;7.150;2023-03-29T01:55:49;6.20;99.90
2929;DHT22;1474;51.460;7.150;2023-03-29T01:58:08;6.20;99.90
2929;DHT22;1474;51.460;7.150;2023-03-29T02:00:36;6.10;99.90
2929;DHT22;1474;51.460;7.150;2023-03-29T02:03:06;6.10;99.90
2929;DHT22;1474;51.460;7.150;2023-03-29T02:05:33;6.20;99.90
2929;DHT22;1474;51.460;7.150;2023-03-29T02:08:01;6.20;99.90
2929;DHT22;1474;51.460;7.150;2023-03-29T02:10:29;6.20;99.90
2929;DHT22;1474;51.460;7.150;2023-03-29T02:12:56;6.20;99.90
2929;DHT22;1474;51.460;7.150;2023-03-29T02:15:22;6.20;99.90
2929;DHT22;1474;51.460;7.150;2023-03-29T02:17:49;6.30;99.90
2929;DHT22;1474;51.460;7.150;2023-03-29T02:20:42;6.30;99.90
2929;DHT22;1474;51.460;7.150;2023-03-29T02:23:25;6.30;99.90
2929;DHT22;1474;51.460;7.150;2023-03-29T02:25:52;6.30;99.90
2929;DHT22;1474;51.460;7.150;2023-03-29T02:28:19;6.40;99.90
2929;DHT22;1474;51.460;7.150;2023-03-29T02:31:23;6.40;99.90
2929;DHT22;1474;51.460;7.150;2023-03-29T02:36:56;6.40;99.90
2929;DHT22;1474;51.460;7.150;2023-03-29T02:39:23;6.40;99.90
2929;DHT22;1474;51.460;7.150;2023-03-29T02:41:51;6.50;99.90
2929;DHT22;1474;51.460;7.150;2023-03-29T02:44:20;6.50;99.90
2929;DHT22;1474;51.460;7.150;2023-03-29T02:46:52;6.50;99.90
2929;DHT22;1474;51.460;7.150;2023-03-29T02:49:20;6.50;99.90
2929;DHT22;1474;51.460;7.150;2023-03-29T02:51:48;6.60;99.90
2929;DHT22;1474;51.460;7.150;2023-03-29T02:54:18;6.60;99.90
2929;DHT22;1474;51.460;7.150;2023-03-29T02:56:56;6.60;99.90
2929;DHT22;1474;51.460;7.150;2023-03-29T02:59:22;6.60;99.90
2929;DHT22;1474;51.460;7.150;2023-03-29T03:01:48;6.60;99.90
2929;DHT22;1474;51.460;7.150;2023-03-29T03:04:14;6.70;99.90
2929;DHT22;1474;51.460;7.150;2023-03-29T03:06:42;6.70;99.90
2929;DHT22;1474;51.460;7.150;2023-03-29T03:09:08;6.70;99.90
2929;DHT22;1474;51.460;7.150;2023-03-29T03:11:34;6.70;99.90
2929;DHT22;1474;51.460;7.150;2023-03-29T03:14:00;6.70;99.90
2929;DHT22;1474;51.460;7.150;2023-03-29T03:16:26;6.70;99.90
2929;DHT22;1474;51.460;7.150;2023-03-29T03:18:52;6.70;99.90
2929;DHT22;1474;51.460;7.150;2023-03-29T03:21:19;6.70;99.90
2929;DHT22;1474;51.460;7.150;2023-03-29T03:23:47;6.70;99.90
2929;DHT22;1474;51.460;7.150;2023-03-29T03:26:15;6.60;99.90
2929;DHT22;1474;51.460;7.150;2023-03-29T03:28:41;6.70;99.90
2929;DHT22;1474;51.460;7.150;2023-03-29T03:31:06;6.70;99.90
2929;DHT22;1474;51.460;7.150;2023-03-29T03:33:32;6.70;99.90
2929;DHT22;1474;51.460;7.150;2023-03-29T03:35:58;6.70;99.90
2929;DHT22;1474;51.460;7.150;2023-03-29T03:38:28;6.70;99.90
2929;DHT22;1474;51.460;7.150;2023-03-29T03:40:58;6.70;99.90
2929;DHT22;1474;51.460;7.150;2023-03-29T03:43:24;6.70;99.90
2929;DHT22;1474;51.460;7.150;2023-03-29T03:45:50;6.80;99.90
2929;DHT22;1474;51.460;7.150;2023-03-29T03:48:16;6.80;99.90
2929;DHT22;1474;51.460;7.150;2023-03-29T03:50:49;6.80;99.90
2929;DHT22;1474;51.460;7.150;2023-03-29T03:53:15;6.80;99.90
2929;DHT22;1474;51.460;7.150;2023-03-29T03:55:41;6.80;99.90
2929;DHT22;1474;51.460;7.150;2023-03-29T03:58:07;6.80;99.90
2929;DHT22;1474;51.460;7.150;2023-03-29T04:00:33;6.80;99.90
2929;DHT22;1474;51.460;7.150;2023-03-29T04:02:58;6.80;99.90
2929;DHT22;1474;51.460;7.150;2023-03-29T04:05:26;6.80;99.90
2929;DHT22;1474;51.460;7.150;2023-03-29T04:07:52;6.80;99.90
2929;DHT22;1474;51.460;7.150;2023-03-29T04:10:18;6.80;99.90
2929;DHT22;1474;51.460;7.150;2023-03-29T04:12:45;6.80;99.90
2929;DHT22;1474;51.460;7.150;2023-03-29T04:15:11;6.80;99.90
2929;DHT22;1474;51.460;7.150;2023-03-29T04:17:37;6.80;99.90
2929;DHT22;1474;51.460;7.150;2023-03-29T04:20:03;6.80;99.90
2929;DHT22;1474;51.460;7.150;2023-03-29T04:22:37;6.70;99.90
2929;DHT22;1474;51.460;7.150;2023-03-29T04:25:03;6.70;99.90
2929;DHT22;1474;51.460;7.150;2023-03-29T04:27:29;6.70;99.90
2929;DHT22;1474;51.460;7.150;2023-03-29T04:29:55;6.60;99.90
2929;DHT22;1474;51.460;7.150;2023-03-29T04:32:21;6.60;99.90
2929;DHT22;1474;51.460;7.150;2023-03-29T04:34:46;6.60;99.90
2929;DHT22;1474;51.460;7.150;2023-03-29T04:37:12;6.60;99.90
2929;DHT22;1474;51.460;7.150;2023-03-29T04:39:37;6.60;99.90
2929;DHT22;1474;51.460;7.150;2023-03-29T04:42:04;6.60;99.90
2929;DHT22;1474;51.460;7.150;2023-03-29T04:44:29;6.60;99.90
2929;DHT22;1474;51.460;7.150;2023-03-29T04:46:58;6.60;99.90
2929;DHT22;1474;51.460;7.150;2023-03-29T04:49:24;6.60;99.90
2929;DHT22;1474;51.460;7.150;2023-03-29T04:51:50;6.60;99.90
2929;DHT22;1474;51.460;7.150;2023-03-29T04:54:16;6.60;99.90
2929;DHT22;1474;51.460;7.150;2023-03-29T04:56:41;6.60;99.90
2929;DHT22;1474;51.460;7.150;2023-03-29T04:59:07;6.60;99.90
2929;DHT22;1474;51.460;7.150;2023-03-29T05:01:34;6.70;99.90
2929;DHT22;1474;51.460;7.150;2023-03-29T05:03:59;6.70;99.90
2929;DHT22;1474;51.460;7.150;2023-03-29T05:06:25;6.70;99.90
2929;DHT22;1474;51.460;7.150;2023-03-29T05:08:51;6.80;99.90
2929;DHT22;1474;51.460;7.150;2023-03-29T05:11:16;6.80;99.90
2929;DHT22;1474;51.460;7.150;2023-03-29T05:13:44;6.70;99.90
2929;DHT22;1474;51.460;7.150;2023-03-29T05:16:09;6.80;99.90
2929;DHT22;1474;51.460;7.150;2023-03-29T05:18:35;6.80;99.90
2929;DHT22;1474;51.460;7.150;2023-03-29T05:21:01;6.90;99.90
2929;DHT22;1474;51.460;7.150;2023-03-29T05:23:28;6.90;99.90
2929;DHT22;1474;51.460;7.150;2023-03-29T05:25:54;6.80;99.90
2929;DHT22;1474;51.460;7.150;2023-03-29T05:28:19;6.80;99.90
2929;DHT22;1474;51.460;7.150;2023-03-29T05:30:45;6.80;99.90
2929;DHT22;1474;51.460;7.150;2023-03-29T05:33:11;6.70;99.90
2929;DHT22;1474;51.460;7.150;2023-03-29T05:35:37;6.70;99.90
2929;DHT22;1474;51.460;7.150;2023-03-29T05:38:03;6.60;99.90
2929;DHT22;1474;51.460;7.150;2023-03-29T05:40:30;6.60;99.90
2929;DHT22;1474;51.460;7.150;2023-03-29T05:42:56;6.60;99.90
2929;DHT22;1474;51.460;7.150;2023-03-29T05:45:22;6.60;99.90
2929;DHT22;1474;51.460;7.150;2023-03-29T05:47:49;6.60;99.90
2929;DHT22;1474;51.460;7.150;2023-03-29T05:50:15;6.60;99.90
2929;DHT22;1474;51.460;7.150;2023-03-29T05:52:40;6.60;99.90
2929;DHT22;1474;51.460;7.150;2023-03-29T05:55:08;6.50;99.90
2929;DHT22;1474;51.460;7.150;2023-03-29T05:57:35;6.60;99.90
2929;DHT22;1474;51.460;7.150;2023-03-29T06:00:03;6.50;99.90
2929;DHT22;1474;51.460;7.150;2023-03-29T06:02:41;6.50;99.90
2929;DHT22;1474;51.460;7.150;2023-03-29T06:05:07;6.60;99.90
2929;DHT22;1474;51.460;7.150;2023-03-29T06:07:33;6.50;99.90
2929;DHT22;1474;51.460;7.150;2023-03-29T06:09:59;6.50;99.90
2929;DHT22;1474;51.460;7.150;2023-03-29T06:12:24;6.60;99.90
2929;DHT22;1474;51.460;7.150;2023-03-29T06:14:50;6.60;99.90
2929;DHT22;1474;51.460;7.150;2023-03-29T06:17:16;6.60;99.90
2929;DHT22;1474;51.460;7.150;2023-03-29T06:19:41;6.60;99.90
2929;DHT22;1474;51.460;7.150;2023-03-29T06:22:08;6.70;99.90
2929;DHT22;1474;51.460;7.150;2023-03-29T06:24:34;6.70;99.90
2929;DHT22;1474;51.460;7.150;2023-03-29T06:27:00;6.80;99.90
2929;DHT22;1474;51.460;7.150;2023-03-29T06:29:25;6.90;99.90
2929;DHT22;1474;51.460;7.150;2023-03-29T06:31:53;6.90;99.90
2929;DHT22;1474;51.460;7.150;2023-03-29T06:34:19;6.90;99.90
2929;DHT22;1474;51.460;7.150;2023-03-29T06:36:46;7.00;99.90
2929;DHT22;1474;51.460;7.150;2023-03-29T06:39:11;7.00;99.90
2929;DHT22;1474;51.460;7.150;2023-03-29T06:41:37;7.10;99.90
2929;DHT22;1474;51.460;7.150;2023-03-29T06:44:03;7.10;99.90
2929;DHT22;1474;51.460;7.150;2023-03-29T06:46:29;7.20;99.90
2929;DHT22;1474;51.460;7.150;2023-03-29T06:48:55;7.20;99.90
2929;DHT22;1474;51.460;7.150;2023-03-29T06:51:20;7.20;99.90
2929;DHT22;1474;51.460;7.150;2023-03-29T06:53:47;7.30;99.90
2929;DHT22;1474;51.460;7.150;2023-03-29T06:56:12;7.40;99.90
2929;DHT22;1474;51.460;7.150;2023-03-29T06:58:38;7.40;99.90
2929;DHT22;1474;51.460;7.150;2023-03-29T07:01:05;7.40;99.90
2929;DHT22;1474;51.460;7.150;2023-03-29T07:03:31;7.50;99.90
2929;DHT22;1474;51.460;7.150;2023-03-29T07:06:00;7.50;99.90
2929;DHT22;1474;51.460;7.150;2023-03-29T07:08:28;7.50;99.90
2929;DHT22;1474;51.460;7.150;2023-03-29T07:10:59;7.60;99.90
2929;DHT22;1474;51.460;7.150;2023-03-29T07:13:25;7.60;99.90
2929;DHT22;1474;51.460;7.150;2023-03-29T07:15:51;7.70;99.90
2929;DHT22;1474;51.460;7.150;2023-03-29T07:18:17;7.70;99.90
2929;DHT22;1474;51.460;7.150;2023-03-29T07:20:43;7.70;99.90
2929;DHT22;1474;51.460;7.150;2023-03-29T07:23:09;7.80;99.90
2929;DHT22;1474;51.460;7.150;2023-03-29T07:25:36;7.80;99.90
2929;DHT22;1474;51.460;7.150;2023-03-29T07:28:03;7.90;99.90
2929;DHT22;1474;51.460;7.150;2023-03-29T07:30:29;8.00;99.90
2929;DHT22;1474;51.460;7.150;2023-03-29T07:32:55;8.00;99.90
2929;DHT22;1474;51.460;7.150;2023-03-29T07:35:23;8.10;99.90
2929;DHT22;1474;51.460;7.150;2023-03-29T07:37:49;8.10;99.90
2929;DHT22;1474;51.460;7.150;2023-03-29T07:40:16;8.20;99.90
2929;DHT22;1474;51.460;7.150;2023-03-29T07:42:44;8.20;99.90
2929;DHT22;1474;51.460;7.150;2023-03-29T07:45:12;8.30;99.90
2929;DHT22;1474;51.460;7.150;2023-03-29T07:47:39;8.40;99.90
2929;DHT22;1474;51.460;7.150;2023-03-29T07:50:06;8.40;99.90
2929;DHT22;1474;51.460;7.150;2023-03-29T07:52:34;8.50;99.90
2929;DHT22;1474;51.460;7.150;2023-03-29T07:54:59;8.50;99.90
2929;DHT22;1474;51.460;7.150;2023-03-29T07:57:25;8.60;99.90
2929;DHT22;1474;51.460;7.150;2023-03-29T07:59:52;8.60;99.90
2929;DHT22;1474;51.460;7.150;2023-03-29T08:02:18;8.70;99.90
2929;DHT22;1474;51.460;7.150;2023-03-29T08:04:45;8.70;99.90
2929;DHT22;1474;51.460;7.150;2023-03-29T08:07:11;8.80;99.90
2929;DHT22;1474;51.460;7.150;2023-03-29T08:09:38;8.80;99.90
2929;DHT22;1474;51.460;7.150;2023-03-29T08:12:04;8.90;99.90
2929;DHT22;1474;51.460;7.150;2023-03-29T08:14:29;8.90;99.90
2929;DHT22;1474;51.460;7.150;2023-03-29T08:16:55;9.00;99.90
2929;DHT22;1474;51.460;7.150;2023-03-29T08:19:21;9.00;99.90
2929;DHT22;1474;51.460;7.150;2023-03-29T08:21:47;9.10;99.90
2929;DHT22;1474;51.460;7.150;2023-03-29T08:24:12;9.10;99.90
2929;DHT22;1474;51.460;7.150;2023-03-29T08:26:38;9.10;99.90
2929;DHT22;1474;51.460;7.150;2023-03-29T08:29:04;9.20;99.90
2929;DHT22;1474;51.460;7.150;2023-03-29T08:31:30;9.20;99.90
2929;DHT22;1474;51.460;7.150;2023-03-29T08:33:55;9.20;99.90
2929;DHT22;1474;51.460;7.150;2023-03-29T08:36:21;9.30;99.90
2929;DHT22;1474;51.460;7.150;2023-03-29T08:38:46;9.30;99.90
2929;DHT22;1474;51.460;7.150;2023-03-29T08:41:57;9.40;99.90
2929;DHT22;1474;51.460;7.150;2023-03-29T08:44:44;9.40;99.90
2929;DHT22;1474;51.460;7.150;2023-03-29T08:47:20;9.50;99.90
2929;DHT22;1474;51.460;7.150;2023-03-29T08:49:50;9.50;99.90
2929;DHT22;1474;51.460;7.150;2023-03-29T08:52:31;9.50;99.90
2929;DHT22;1474;51.460;7.150;2023-03-29T08:54:59;9.50;99.90
2929;DHT22;1474;51.460;7.150;2023-03-29T08:57:38;9.50;99.90
2929;DHT22;1474;51.460;7.150;2023-03-29T09:00:06;9.50;99.90
2929;DHT22;1474;51.460;7.150;2023-03-29T09:02:39;9.60;99.90
2929;DHT22;1474;51.460;7.150;2023-03-29T09:05:19;9.60;99.90
2929;DHT22;1474;51.460;7.150;2023-03-29T09:07:46;9.60;99.90
2929;DHT22;1474;51.460;7.150;2023-03-29T09:10:15;9.70;99.90
2929;DHT22;1474;51.460;7.150;2023-03-29T09:13:05;9.70;99.90
2929;DHT22;1474;51.460;7.150;2023-03-29T09:15:43;9.70;99.90
2929;DHT22;1474;51.460;7.150;2023-03-29T09:18:28;9.80;99.90
2929;DHT22;1474;51.460;7.150;2023-03-29T09:27:10;10.10;99.90
2929;DHT22;1474;51.460;7.150;2023-03-29T09:32:12;10.30;99.90
2929;DHT22;1474;51.460;7.150;2023-03-29T09:34:44;10.40;99.90
2929;DHT22;1474;51.460;7.150;2023-03-29T09:37:33;10.50;99.90
2929;DHT22;1474;51.460;7.150;2023-03-29T09:40:00;10.60;99.90
2929;DHT22;1474;51.460;7.150;2023-03-29T09:42:28;10.60;99.90
2929;DHT22;1474;51.460;7.150;2023-03-29T09:45:00;10.70;99.90
2929;DHT22;1474;51.460;7.150;2023-03-29T09:50:50;10.90;99.90
2929;DHT22;1474;51.460;7.150;2023-03-29T09:52:52;11.10;99.90
2929;DHT22;1474;51.460;7.150;2023-03-29T09:55:21;11.30;99.90
2929;DHT22;1474;51.460;7.150;2023-03-29T09:57:47;11.40;99.90
2929;DHT22;1474;51.460;7.150;2023-03-29T10:00:14;11.50;99.90
2929;DHT22;1474;51.460;7.150;2023-03-29T10:02:41;11.50;99.90
2929;DHT22;1474;51.460;7.150;2023-03-29T10:05:07;11.50;99.90
2929;DHT22;1474;51.460;7.150;2023-03-29T10:07:44;11.50;99.90
2929;DHT22;1474;51.460;7.150;2023-03-29T10:10:20;11.40;99.90
2929;DHT22;1474;51.460;7.150;2023-03-29T10:12:51;11.50;99.90
2929;DHT22;1474;51.460;7.150;2023-03-29T10:15:19;11.50;99.90
2929;DHT22;1474;51.460;7.150;2023-03-29T10:17:45;11.60;99.90
2929;DHT22;1474;51.460;7.150;2023-03-29T10:20:18;11.80;99.90
2929;DHT22;1474;51.460;7.150;2023-03-29T10:22:48;11.90;99.90
2929;DHT22;1474;51.460;7.150;2023-03-29T10:25:18;12.00;99.90
2929;DHT22;1474;51.460;7.150;2023-03-29T10:27:45;12.10;99.90
2929;DHT22;1474;51.460;7.150;2023-03-29T10:30:19;12.10;99.90
2929;DHT22;1474;51.460;7.150;2023-03-29T10:32:45;12.10;99.90
2929;DHT22;1474;51.460;7.150;2023-03-29T10:35:23;12.20;99.90
2929;DHT22;1474;51.460;7.150;2023-03-29T10:37:51;12.40;99.90
2929;DHT22;1474;51.460;7.150;2023-03-29T10:40:19;12.50;99.90
2929;DHT22;1474;51.460;7.150;2023-03-29T10:42:50;12.50;99.90
2929;DHT22;1474;51.460;7.150;2023-03-29T10:45:29;12.70;99.90
2929;DHT22;1474;51.460;7.150;2023-03-29T10:47:57;12.90;99.90
2929;DHT22;1474;51.460;7.150;2023-03-29T10:50:24;12.90;99.90
2929;DHT22;1474;51.460;7.150;2023-03-29T10:52:50;13.00;99.90
2929;DHT22;1474;51.460;7.150;2023-03-29T10:55:16;13.20;99.90
2929;DHT22;1474;51.460;7.150;2023-03-29T10:58:20;13.20;99.90
2929;DHT22;1474;51.460;7.150;2023-03-29T11:00:51;13.10;99.90
2929;DHT22;1474;51.460;7.150;2023-03-29T11:03:21;13.10;99.90
2929;DHT22;1474;51.460;7.150;2023-03-29T11:06:12;13.00;99.90
2929;DHT22;1474;51.460;7.150;2023-03-29T11:08:47;13.00;99.90
2929;DHT22;1474;51.460;7.150;2023-03-29T11:19:22;13.60;99.90
2929;DHT22;1474;51.460;7.150;2023-03-29T11:24:52;14.30;99.90
2929;DHT22;1474;51.460;7.150;2023-03-29T11:28:00;14.50;99.90
2929;DHT22;1474;51.460;7.150;2023-03-29T11:40:54;14.90;99.90
2929;DHT22;1474;51.460;7.150;2023-03-29T11:46:02;14.80;99.90
2929;DHT22;1474;51.460;7.150;2023-03-29T11:51:55;14.80;99.90
2929;DHT22;1474;51.460;7.150;2023-03-29T11:54:31;14.90;99.90
2929;DHT22;1474;51.460;7.150;2023-03-29T11:57:09;14.90;99.90
2929;DHT22;1474;51.460;7.150;2023-03-29T11:59:42;14.90;99.90
2929;DHT22;1474;51.460;7.150;2023-03-29T12:02:28;15.00;99.90
2929;DHT22;1474;51.460;7.150;2023-03-29T12:04:58;15.00;99.90
2929;DHT22;1474;51.460;7.150;2023-03-29T12:12:49;15.20;99.90
2929;DHT22;1474;51.460;7.150;2023-03-29T12:15:22;15.30;99.90
2929;DHT22;1474;51.460;7.150;2023-03-29T12:18:05;15.30;99.90
2929;DHT22;1474;51.460;7.150;2023-03-29T12:20:34;15.30;99.90
2929;DHT22;1474;51.460;7.150;2023-03-29T12:23:05;15.40;99.90
2929;DHT22;1474;51.460;7.150;2023-03-29T12:26:02;15.50;99.90
2929;DHT22;1474;51.460;7.150;2023-03-29T12:37:20;15.40;99.90
2929;DHT22;1474;51.460;7.150;2023-03-29T12:39:49;15.40;99.90
2929;DHT22;1474;51.460;7.150;2023-03-29T12:42:18;15.50;99.90
2929;DHT22;1474;51.460;7.150;2023-03-29T12:44:49;15.60;99.90
2929;DHT22;1474;51.460;7.150;2023-03-29T12:47:20;15.60;99.90
2929;DHT22;1474;51.460;7.150;2023-03-29T12:49:51;15.50;99.90
2929;DHT22;1474;51.460;7.150;2023-03-29T12:52:30;15.30;99.90
2929;DHT22;1474;51.460;7.150;2023-03-29T12:55:03;15.30;99.90
2929;DHT22;1474;51.460;7.150;2023-03-29T12:57:40;15.10;99.90
2929;DHT22;1474;51.460;7.150;2023-03-29T13:00:30;15.00;99.90
2929;DHT22;1474;51.460;7.150;2023-03-29T13:03:17;15.00;99.90
2929;DHT22;1474;51.460;7.150;2023-03-29T13:05:44;14.80;99.90
2929;DHT22;1474;51.460;7.150;2023-03-29T13:08:22;14.80;99.90
2929;DHT22;1474;51.460;7.150;2023-03-29T13:10:54;14.70;99.90
2929;DHT22;1474;51.460;7.150;2023-03-29T13:13:29;14.80;99.90
2929;DHT22;1474;51.460;7.150;2023-03-29T13:16:15;14.90;99.90
2929;DHT22;1474;51.460;7.150;2023-03-29T13:21:26;15.30;99.90
2929;DHT22;1474;51.460;7.150;2023-03-29T13:24:01;15.50;99.90
2929;DHT22;1474;51.460;7.150;2023-03-29T13:32:58;16.10;99.90
2929;DHT22;1474;51.460;7.150;2023-03-29T13:35:37;16.10;99.90
2929;DHT22;1474;51.460;7.150;2023-03-29T13:38:17;16.20;99.90
2929;DHT22;1474;51.460;7.150;2023-03-29T13:46:14;15.90;99.90
2929;DHT22;1474;51.460;7.150;2023-03-29T13:56:41;15.70;99.90
2929;DHT22;1474;51.460;7.150;2023-03-29T13:59:18;15.80;99.90
2929;DHT22;1474;51.460;7.150;2023-03-29T14:01:53;15.80;99.90
2929;DHT22;1474;51.460;7.150;2023-03-29T14:04:26;15.70;99.90
2929;DHT22;1474;51.460;7.150;2023-03-29T14:06:55;15.70;99.90
2929;DHT22;1474;51.460;7.150;2023-03-29T14:09:30;15.80;99.90
2929;DHT22;1474;51.460;7.150;2023-03-29T14:12:00;15.80;99.90
2929;DHT22;1474;51.460;7.150;2023-03-29T14:14:28;15.80;99.90
2929;DHT22;1474;51.460;7.150;2023-03-29T14:16:55;15.80;99.90
2929;DHT22;1474;51.460;7.150;2023-03-29T14:19:30;15.80;99.90
2929;DHT22;1474;51.460;7.150;2023-03-29T14:21:59;16.00;99.90
2929;DHT22;1474;51.460;7.150;2023-03-29T14:24:33;16.00;99.90
2929;DHT22;1474;51.460;7.150;2023-03-29T14:27:01;16.10;99.90
2929;DHT22;1474;51.460;7.150;2023-03-29T14:29:33;16.10;99.90
2929;DHT22;1474;51.460;7.150;2023-03-29T14:32:13;16.00;99.90
2929;DHT22;1474;51.460;7.150;2023-03-29T14:34:41;16.10;99.90
2929;DHT22;1474;51.460;7.150;2023-03-29T14:37:10;16.10;99.90
2929;DHT22;1474;51.460;7.150;2023-03-29T14:39:37;16.00;99.90
2929;DHT22;1474;51.460;7.150;2023-03-29T14:42:16;16.00;99.90
2929;DHT22;1474;51.460;7.150;2023-03-29T14:44:45;16.10;99.90
2929;DHT22;1474;51.460;7.150;2023-03-29T14:47:36;16.10;99.90
2929;DHT22;1474;51.460;7.150;2023-03-29T14:50:01;16.10;99.90
2929;DHT22;1474;51.460;7.150;2023-03-29T14:52:29;16.10;99.90
2929;DHT22;1474;51.460;7.150;2023-03-29T14:54:58;16.10;99.90
2929;DHT22;1474;51.460;7.150;2023-03-29T14:57:26;16.10;99.90
2929;DHT22;1474;51.460;7.150;2023-03-29T15:00:03;16.10;99.90
2929;DHT22;1474;51.460;7.150;2023-03-29T15:02:37;16.10;99.90
2929;DHT22;1474;51.460;7.150;2023-03-29T15:05:27;16.00;99.90
2929;DHT22;1474;51.460;7.150;2023-03-29T15:07:54;16.00;99.90
2929;DHT22;1474;51.460;7.150;2023-03-29T15:10:21;16.10;99.90
2929;DHT22;1474;51.460;7.150;2023-03-29T15:12:48;16.00;99.90
2929;DHT22;1474;51.460;7.150;2023-03-29T15:15:14;16.10;99.90
2929;DHT22;1474;51.460;7.150;2023-03-29T15:17:42;16.10;99.90
2929;DHT22;1474;51.460;7.150;2023-03-29T15:20:58;16.10;99.90
2929;DHT22;1474;51.460;7.150;2023-03-29T15:23:24;16.10;99.90
2929;DHT22;1474;51.460;7.150;2023-03-29T15:25:55;16.20;99.90
2929;DHT22;1474;51.460;7.150;2023-03-29T15:28:32;16.20;99.90
2929;DHT22;1474;51.460;7.150;2023-03-29T15:31:03;16.10;99.90
2929;DHT22;1474;51.460;7.150;2023-03-29T15:33:37;16.10;99.90
2929;DHT22;1474;51.460;7.150;2023-03-29T15:36:04;16.10;99.90
2929;DHT22;1474;51.460;7.150;2023-03-29T15:38:31;16.00;99.90
2929;DHT22;1474;51.460;7.150;2023-03-29T15:40:57;16.00;99.90
2929;DHT22;1474;51.460;7.150;2023-03-29T15:43:23;16.00;99.90
2929;DHT22;1474;51.460;7.150;2023-03-29T15:45:50;16.00;99.90
2929;DHT22;1474;51.460;7.150;2023-03-29T15:48:24;16.00;99.90
2929;DHT22;1474;51.460;7.150;2023-03-29T15:50:51;16.00;99.90
2929;DHT22;1474;51.460;7.150;2023-03-29T15:53:17;16.10;99.90
2929;DHT22;1474;51.460;7.150;2023-03-29T15:55:47;16.10;99.90
2929;DHT22;1474;51.460;7.150;2023-03-29T15:58:16;16.10;99.90
2929;DHT22;1474;51.460;7.150;2023-03-29T16:00:47;16.10;99.90
2929;DHT22;1474;51.460;7.150;2023-03-29T16:03:14;16.00;99.90
2929;DHT22;1474;51.460;7.150;2023-03-29T16:05:44;16.00;99.90
2929;DHT22;1474;51.460;7.150;2023-03-29T16:08:11;16.00;99.90
2929;DHT22;1474;51.460;7.150;2023-03-29T16:10:37;16.10;99.90
2929;DHT22;1474;51.460;7.150;2023-03-29T16:13:03;16.00;99.90
2929;DHT22;1474;51.460;7.150;2023-03-29T16:15:30;16.10;99.90
2929;DHT22;1474;51.460;7.150;2023-03-29T16:17:56;16.00;99.90
2929;DHT22;1474;51.460;7.150;2023-03-29T16:20:22;16.00;99.90
2929;DHT22;1474;51.460;7.150;2023-03-29T16:22:48;15.90;99.90
2929;DHT22;1474;51.460;7.150;2023-03-29T16:25:18;15.90;99.90
2929;DHT22;1474;51.460;7.150;2023-03-29T16:27:47;15.90;99.90
2929;DHT22;1474;51.460;7.150;2023-03-29T16:30:13;16.00;99.90
2929;DHT22;1474;51.460;7.150;2023-03-29T16:32:39;16.00;99.90
2929;DHT22;1474;51.460;7.150;2023-03-29T16:35:10;15.90;99.90
2929;DHT22;1474;51.460;7.150;2023-03-29T16:37:37;15.90;99.90
2929;DHT22;1474;51.460;7.150;2023-03-29T16:40:02;15.90;99.90
2929;DHT22;1474;51.460;7.150;2023-03-29T16:42:32;15.90;99.90
2929;DHT22;1474;51.460;7.150;2023-03-29T16:44:58;15.90;99.90
2929;DHT22;1474;51.460;7.150;2023-03-29T16:47:26;15.80;99.90
2929;DHT22;1474;51.460;7.150;2023-03-29T16:49:52;15.80;99.90
2929;DHT22;1474;51.460;7.150;2023-03-29T16:52:18;15.80;99.90
2929;DHT22;1474;51.460;7.150;2023-03-29T16:54:43;15.80;99.90
2929;DHT22;1474;51.460;7.150;2023-03-29T16:57:09;15.70;99.90
2929;DHT22;1474;51.460;7.150;2023-03-29T16:59:34;15.60;99.90
2929;DHT22;1474;51.460;7.150;2023-03-29T17:02:00;15.60;99.90
2929;DHT22;1474;51.460;7.150;2023-03-29T17:04:26;15.60;99.90
2929;DHT22;1474;51.460;7.150;2023-03-29T17:06:52;15.50;99.90
2929;DHT22;1474;51.460;7.150;2023-03-29T17:09:18;15.50;99.90
2929;DHT22;1474;51.460;7.150;2023-03-29T17:11:44;15.50;99.90
2929;DHT22;1474;51.460;7.150;2023-03-29T17:14:09;15.40;99.90
2929;DHT22;1474;51.460;7.150;2023-03-29T17:16:35;15.30;99.90
2929;DHT22;1474;51.460;7.150;2023-03-29T17:19:01;15.30;99.90
2929;DHT22;1474;51.460;7.150;2023-03-29T17:21:27;15.30;99.90
2929;DHT22;1474;51.460;7.150;2023-03-29T17:23:53;15.30;99.90
2929;DHT22;1474;51.460;7.150;2023-03-29T17:26:19;15.30;99.90
2929;DHT22;1474;51.460;7.150;2023-03-29T17:28:45;15.20;99.90
2929;DHT22;1474;51.460;7.150;2023-03-29T17:31:11;15.30;99.90
2929;DHT22;1474;51.460;7.150;2023-03-29T17:33:36;15.30;99.90
2929;DHT22;1474;51.460;7.150;2023-03-29T17:36:03;15.30;99.90
2929;DHT22;1474;51.460;7.150;2023-03-29T17:38:29;15.30;99.90
2929;DHT22;1474;51.460;7.150;2023-03-29T17:40:55;15.30;99.90
2929;DHT22;1474;51.460;7.150;2023-03-29T17:43:21;15.30;99.90
2929;DHT22;1474;51.460;7.150;2023-03-29T17:45:51;15.30;99.90
2929;DHT22;1474;51.460;7.150;2023-03-29T17:48:17;15.30;99.90
2929;DHT22;1474;51.460;7.150;2023-03-29T17:50:43;15.20;99.90
2929;DHT22;1474;51.460;7.150;2023-03-29T17:53:09;15.20;99.90
2929;DHT22;1474;51.460;7.150;2023-03-29T17:55:35;15.20;99.90
2929;DHT22;1474;51.460;7.150;2023-03-29T17:58:00;15.20;99.90
2929;DHT22;1474;51.460;7.150;2023-03-29T18:00:26;15.20;99.90